Time,TemperatureF,DewpointF,PressureIn,WindDirection,WindDirectionDegrees,WindSpeedMPH,WindSpeedGustMPH,Humidity,HourlyPrecipIn,Conditions,Clouds,dailyrainin,SoftwareType,DateUTC
2013-07-28 00:00:00,66.5,65.6,29.88,South,186,1.0,1.0,97,0.05,,,0.26,Wunderground v.1.15,2013-07-28 04:00:00,
2013-07-28 00:05:00,66.6,65.4,29.86,SE,136,1.0,2.0,96,0.05,,,0.00,Wunderground v.1.15,2013-07-28 04:05:00,
2013-07-28 00:10:00,66.8,65.3,29.86,SE,142,1.0,1.0,95,0.04,,,0.00,Wunderground v.1.15,2013-07-28 04:10:00,
2013-07-28 00:15:00,66.7,65.2,29.86,SE,141,1.0,1.0,95,0.00,,,0.00,Wunderground v.1.15,2013-07-28 04:15:00,
2013-07-28 00:20:00,66.7,64.9,29.86,SW,231,1.0,6.0,94,0.00,,,0.01,Wunderground v.1.15,2013-07-28 04:20:00,
2013-07-28 00:25:00,66.6,64.8,29.86,SE,136,1.0,6.0,94,0.00,,,0.01,Wunderground v.1.15,2013-07-28 04:25:00,
2013-07-28 00:30:00,66.6,64.8,29.86,ESE,104,1.0,3.0,94,0.00,,,0.01,Wunderground v.1.15,2013-07-28 04:30:00,
2013-07-28 00:35:00,66.6,64.8,29.85,SSE,148,1.0,3.0,94,0.04,,,0.02,Wunderground v.1.15,2013-07-28 04:35:00,
2013-07-28 00:45:00,66.5,64.7,29.85,SSE,148,0.0,0.0,94,0.04,,,0.02,Wunderground v.1.15,2013-07-28 04:45:00,
2013-07-28 00:50:00,66.5,64.7,29.85,SSW,205,0.0,0.0,94,0.00,,,0.02,Wunderground v.1.15,2013-07-28 04:50:00,
2013-07-28 01:00:00,66.4,64.6,29.85,East,92,0.0,0.0,94,0.00,,,0.02,Wunderground v.1.15,2013-07-28 05:00:00,
2013-07-28 01:05:00,66.3,64.8,29.84,East,92,0.0,0.0,95,0.00,,,0.02,Wunderground v.1.15,2013-07-28 05:05:00,
2013-07-28 01:15:00,66.0,64.5,29.84,East,92,0.0,0.0,95,0.00,,,0.02,Wunderground v.1.15,2013-07-28 05:15:00,
2013-07-28 01:25:00,65.8,64.6,29.84,East,93,0.0,1.0,96,0.00,,,0.02,Wunderground v.1.15,2013-07-28 05:25:00,
2013-07-28 01:30:00,65.8,64.6,29.84,East,94,0.0,0.0,96,0.00,,,0.02,Wunderground v.1.15,2013-07-28 05:30:00,
2013-07-28 01:35:00,65.7,64.5,29.84,East,94,0.0,0.0,96,0.00,,,0.02,Wunderground v.1.15,2013-07-28 05:35:00,
2013-07-28 01:45:00,65.6,64.4,29.84,East,94,0.0,0.0,96,0.00,,,0.02,Wunderground v.1.15,2013-07-28 05:45:00,
2013-07-28 01:50:00,65.6,64.4,29.83,East,94,0.0,2.0,96,0.00,,,0.02,Wunderground v.1.15,2013-07-28 05:50:00,
2013-07-28 02:00:00,65.8,64.9,29.83,SE,132,1.0,1.0,97,0.00,,,0.02,Wunderground v.1.15,2013-07-28 06:00:00,
2013-07-28 02:05:00,65.9,65.0,29.83,ESE,121,0.0,1.0,97,0.00,,,0.02,Wunderground v.1.15,2013-07-28 06:05:00,
2013-07-28 02:15:00,66.0,65.1,29.83,SE,134,1.0,1.0,97,0.00,,,0.02,Wunderground v.1.15,2013-07-28 06:15:00,
2013-07-28 02:25:00,66.2,65.0,29.83,ESE,117,1.0,1.0,96,0.00,,,0.02,Wunderground v.1.15,2013-07-28 06:25:00,
2013-07-28 02:30:00,66.2,65.0,29.83,ESE,123,1.0,1.0,96,0.00,,,0.02,Wunderground v.1.15,2013-07-28 06:30:00,
2013-07-28 02:35:00,66.2,65.0,29.82,ESE,123,1.0,1.0,96,0.00,,,0.02,Wunderground v.1.15,2013-07-28 06:35:00,
2013-07-28 02:45:00,66.2,65.0,29.82,East,88,0.0,0.0,96,0.00,,,0.02,Wunderground v.1.15,2013-07-28 06:45:00,
2013-07-28 02:50:00,66.1,64.9,29.82,East,90,0.0,0.0,96,0.00,,,0.02,Wunderground v.1.15,2013-07-28 06:50:00,
2013-07-28 03:00:00,66.1,64.9,29.82,East,94,0.0,0.0,96,0.00,,,0.02,Wunderground v.1.15,2013-07-28 07:00:00,
2013-07-28 03:05:00,66.1,64.9,29.82,East,95,0.0,0.0,96,0.00,,,0.02,Wunderground v.1.15,2013-07-28 07:05:00,
2013-07-28 03:15:00,66.0,64.8,29.82,ESE,107,0.0,0.0,96,0.00,,,0.02,Wunderground v.1.15,2013-07-28 07:15:00,
2013-07-28 03:20:00,66.0,64.8,29.82,ESE,107,0.0,0.0,96,0.00,,,0.02,Wunderground v.1.15,2013-07-28 07:20:00,
2013-07-28 03:25:00,66.0,64.8,29.82,ESE,107,0.0,0.0,96,0.00,,,0.02,Wunderground v.1.15,2013-07-28 07:25:00,
2013-07-28 03:35:00,65.9,64.7,29.81,SE,130,0.0,2.0,96,0.00,,,0.02,Wunderground v.1.15,2013-07-28 07:35:00,
2013-07-28 03:45:00,65.9,64.7,29.81,SE,130,0.0,0.0,96,0.00,,,0.02,Wunderground v.1.15,2013-07-28 07:45:00,
2013-07-28 03:55:00,65.8,64.6,29.83,SE,130,0.0,0.0,96,0.00,,,0.02,Wunderground v.1.15,2013-07-28 07:55:00,
2013-07-28 04:00:00,65.7,64.5,29.83,SE,128,0.0,0.0,96,0.00,,,0.02,Wunderground v.1.15,2013-07-28 08:00:00,
2013-07-28 04:05:00,65.7,64.5,29.82,SE,130,0.0,0.0,96,0.00,,,0.02,Wunderground v.1.15,2013-07-28 08:05:00,
2013-07-28 04:15:00,65.7,64.5,29.82,SE,130,0.0,0.0,96,0.00,,,0.02,Wunderground v.1.15,2013-07-28 08:15:00,
2013-07-28 20:50:00,65.0,63.8,29.86,East,81,0.0,3.0,96,0.00,,,0.14,Wunderground v.1.15,2013-07-29 00:50:00,
2013-07-28 20:55:00,65.0,63.8,29.86,East,81,0.0,3.0,96,0.00,,,0.14,Wunderground v.1.15,2013-07-29 00:55:00,
2013-07-28 21:00:00,64.6,63.1,29.86,East,81,0.0,3.0,95,0.00,,,0.14,Wunderground v.1.15,2013-07-29 01:00:00,
2013-07-28 21:05:00,64.1,62.6,29.87,East,81,0.0,3.0,95,0.00,,,0.14,Wunderground v.1.15,2013-07-29 01:05:00,
2013-07-28 21:15:00,63.6,62.4,29.87,East,81,0.0,0.0,96,0.00,,,0.14,Wunderground v.1.15,2013-07-29 01:15:00,
2013-07-28 21:20:00,63.3,62.1,29.86,East,81,0.0,0.0,96,0.00,,,0.14,Wunderground v.1.15,2013-07-29 01:20:00,
2013-07-28 21:30:00,62.6,61.4,29.86,East,81,0.0,0.0,96,0.00,,,0.14,Wunderground v.1.15,2013-07-29 01:30:00,
2013-07-28 21:35:00,62.4,61.2,29.87,East,81,0.0,0.0,96,0.00,,,0.14,Wunderground v.1.15,2013-07-29 01:35:00,
2013-07-28 21:45:00,62.2,61.3,29.87,East,81,0.0,0.0,97,0.00,,,0.14,Wunderground v.1.15,2013-07-29 01:45:00,
2013-07-28 21:55:00,62.1,61.2,29.87,East,81,0.0,0.0,97,0.00,,,0.14,Wunderground v.1.15,2013-07-29 01:55:00,
2013-07-28 22:00:00,62.2,61.6,29.87,East,81,0.0,0.0,98,0.00,,,0.14,Wunderground v.1.15,2013-07-29 02:00:00,
2013-07-28 22:05:00,62.4,61.8,29.88,East,81,0.0,0.0,98,0.00,,,0.14,Wunderground v.1.15,2013-07-29 02:05:00,
2013-07-28 22:15:00,62.5,62.2,29.88,East,81,0.0,0.0,99,0.00,,,0.14,Wunderground v.1.15,2013-07-29 02:15:00,
2013-07-28 22:20:00,62.3,61.4,29.87,East,81,0.0,0.0,97,0.00,,,0.14,Wunderground v.1.15,2013-07-29 02:20:00,
2013-07-28 22:25:00,62.3,61.7,29.87,East,81,0.0,0.0,98,0.00,,,0.14,Wunderground v.1.15,2013-07-29 02:25:00,
2013-07-28 22:35:00,62.4,61.8,29.87,East,81,0.0,0.0,98,0.00,,,0.14,Wunderground v.1.15,2013-07-29 02:35:00,
2013-07-28 22:40:00,62.7,62.1,29.87,East,82,0.0,0.0,98,0.00,,,0.14,Wunderground v.1.15,2013-07-29 02:40:00,
2013-07-28 22:50:00,63.2,62.6,29.88,NE,50,1.0,3.0,98,0.00,,,0.14,Wunderground v.1.15,2013-07-29 02:50:00,
2013-07-28 22:55:00,63.6,63.0,29.88,NE,35,1.0,4.0,98,0.00,,,0.14,Wunderground v.1.15,2013-07-29 02:55:00,
2013-07-28 23:00:00,64.1,63.5,29.88,NNE,32,1.0,1.0,98,0.00,,,0.14,Wunderground v.1.15,2013-07-29 03:00:00,
2013-07-28 23:05:00,64.1,63.5,29.88,NNE,32,0.0,1.0,98,0.00,,,0.14,Wunderground v.1.15,2013-07-29 03:05:00,
2013-07-28 23:10:00,64.2,63.6,29.88,NNE,32,0.0,0.0,98,0.00,,,0.14,Wunderground v.1.15,2013-07-29 03:10:00,
2013-07-28 23:20:00,64.4,63.8,29.89,WNW,287,1.0,4.0,98,0.00,,,0.14,Wunderground v.1.15,2013-07-29 03:20:00,
2013-07-28 23:30:00,63.7,62.5,29.89,WNW,288,7.0,7.0,96,0.00,,,0.14,Wunderground v.1.15,2013-07-29 03:30:00,
2013-07-28 23:35:00,63.3,62.1,29.91,West,271,7.0,7.0,96,0.00,,,0.14,Wunderground v.1.15,2013-07-29 03:35:00,
2013-07-28 23:45:00,62.3,61.1,29.91,West,267,6.0,9.0,96,0.12,,,0.17,Wunderground v.1.15,2013-07-29 03:45:00,
2013-07-28 23:50:00,61.9,61.0,29.92,WNW,284,6.0,6.0,97,0.06,,,0.17,Wunderground v.1.15,2013-07-29 03:50:00,